createdAt,value
2022-12-31T00:01:12.089Z,5.80
2022-12-31T00:03:41.320Z,5.80
2022-12-31T00:06:22.922Z,5.80
2022-12-31T00:08:52.711Z,5.90
2022-12-31T00:11:22.357Z,5.90
2022-12-31T00:13:52.033Z,6.00
2022-12-31T00:16:24.531Z,6.10
2022-12-31T00:18:59.283Z,6.10
2022-12-31T00:21:29.632Z,6.20
2022-12-31T00:23:58.983Z,6.40
2022-12-31T00:26:29.610Z,6.50
2022-12-31T00:28:59.931Z,6.60
2022-12-31T00:31:32.394Z,6.80
2022-12-31T00:34:01.612Z,6.90
2022-12-31T00:36:32.377Z,7.00
2022-12-31T00:39:03.121Z,7.00
2022-12-31T00:41:32.449Z,7.10
2022-12-31T00:44:01.576Z,7.10
2022-12-31T00:46:31.969Z,7.20
2022-12-31T00:49:00.846Z,7.20
2022-12-31T00:51:29.938Z,7.20
2022-12-31T00:53:59.573Z,7.10
2022-12-31T00:56:31.062Z,7.10
2022-12-31T00:59:01.012Z,7.00
2022-12-31T01:01:33.069Z,6.90
2022-12-31T01:04:03.613Z,6.80
2022-12-31T01:06:32.559Z,6.80
2022-12-31T01:09:01.343Z,6.70
2022-12-31T01:11:30.237Z,6.80
2022-12-31T01:14:01.185Z,6.70
2022-12-31T01:16:33.147Z,6.80
2022-12-31T01:19:04.656Z,6.80
2022-12-31T01:21:34.436Z,6.80
2022-12-31T01:24:03.188Z,6.80
2022-12-31T01:26:32.545Z,6.80
2022-12-31T01:29:01.524Z,6.80
2022-12-31T01:31:30.337Z,6.80
2022-12-31T01:34:00.838Z,6.70
2022-12-31T01:36:31.599Z,6.70
2022-12-31T01:39:01.984Z,6.70
2022-12-31T01:41:32.617Z,6.70
2022-12-31T01:44:03.348Z,6.70
2022-12-31T01:46:39.866Z,6.70
2022-12-31T01:49:18.158Z,6.70
2022-12-31T01:51:51.008Z,6.70
2022-12-31T01:54:22.353Z,6.70
2022-12-31T01:56:53.843Z,6.70
2022-12-31T01:59:25.113Z,6.70
2022-12-31T02:01:54.312Z,6.70
2022-12-31T02:04:26.275Z,6.70
2022-12-31T02:06:58.718Z,6.70
2022-12-31T02:09:27.503Z,6.70
2022-12-31T02:11:56.090Z,6.80
2022-12-31T02:14:28.207Z,6.80
2022-12-31T02:17:03.246Z,6.80
2022-12-31T02:20:07.945Z,6.80
2022-12-31T02:23:06.682Z,6.80
2022-12-31T02:25:56.304Z,6.80
2022-12-31T02:28:45.529Z,6.70
2022-12-31T02:31:19.574Z,6.80
2022-12-31T02:33:53.178Z,6.80
2022-12-31T02:36:27.573Z,6.70
2022-12-31T02:38:57.254Z,6.70
2022-12-31T02:41:43.313Z,6.70
2022-12-31T02:44:24.068Z,6.70
2022-12-31T02:47:04.373Z,6.70
2022-12-31T02:49:39.999Z,6.70
2022-12-31T02:52:16.282Z,6.70
2022-12-31T02:54:54.726Z,6.70
2022-12-31T02:57:31.732Z,6.70
2022-12-31T03:00:22.529Z,6.70
2022-12-31T03:02:54.028Z,6.70
2022-12-31T03:05:27.562Z,6.70
2022-12-31T03:07:56.313Z,6.70
2022-12-31T03:10:25.192Z,6.70
2022-12-31T03:12:53.036Z,6.70
2022-12-31T03:15:23.686Z,6.70
2022-12-31T03:17:56.740Z,6.70
2022-12-31T03:20:46.518Z,6.70
2022-12-31T03:23:19.120Z,6.70
2022-12-31T03:25:46.767Z,6.70
2022-12-31T03:28:18.876Z,6.70
2022-12-31T03:30:49.808Z,6.70
2022-12-31T03:33:20.561Z,6.70
2022-12-31T03:35:50.802Z,6.70
2022-12-31T03:38:20.054Z,6.70
2022-12-31T03:40:50.476Z,6.80
2022-12-31T03:43:20.594Z,6.80
2022-12-31T03:45:51.533Z,6.80
2022-12-31T03:48:22.469Z,6.80
2022-12-31T03:50:51.612Z,6.80
2022-12-31T03:53:20.543Z,6.80
2022-12-31T03:55:53.261Z,6.90
2022-12-31T03:58:23.043Z,6.90
2022-12-31T04:00:52.370Z,6.90
2022-12-31T04:03:22.584Z,6.90
2022-12-31T04:05:55.445Z,6.90
2022-12-31T04:08:24.423Z,6.90
2022-12-31T04:10:53.080Z,6.90
2022-12-31T04:13:21.692Z,6.90
2022-12-31T04:15:52.190Z,6.90
2022-12-31T04:18:22.175Z,6.90
2022-12-31T04:20:50.873Z,7.00
2022-12-31T04:23:19.681Z,7.00
2022-12-31T04:25:48.429Z,7.00
2022-12-31T04:28:17.119Z,7.00
2022-12-31T04:30:45.831Z,7.00
2022-12-31T04:33:14.677Z,7.00
2022-12-31T04:35:45.036Z,7.10
2022-12-31T04:38:13.663Z,7.00
2022-12-31T04:40:56.358Z,7.00
2022-12-31T04:43:25.454Z,7.00
2022-12-31T04:45:54.155Z,7.00
2022-12-31T04:48:22.765Z,7.00
2022-12-31T04:50:53.298Z,7.10
2022-12-31T04:53:22.104Z,7.00
2022-12-31T04:55:50.737Z,7.10
2022-12-31T04:58:19.455Z,7.10
2022-12-31T05:00:50.111Z,7.00
2022-12-31T05:03:20.142Z,7.00
2022-12-31T05:05:50.226Z,7.00
2022-12-31T05:08:20.837Z,7.00
2022-12-31T05:10:51.515Z,6.90
2022-12-31T05:13:20.203Z,7.00
2022-12-31T05:15:49.004Z,7.00
2022-12-31T05:18:18.548Z,7.00
2022-12-31T05:20:47.589Z,7.00
2022-12-31T05:23:17.536Z,7.00
2022-12-31T05:25:49.612Z,7.00
2022-12-31T05:28:18.841Z,7.10
2022-12-31T05:30:50.375Z,7.20
2022-12-31T05:33:19.525Z,7.20
2022-12-31T05:35:48.148Z,7.30
2022-12-31T05:38:16.798Z,7.30
2022-12-31T05:40:45.408Z,7.30
2022-12-31T05:43:17.956Z,7.30
2022-12-31T05:45:46.641Z,7.40
2022-12-31T05:48:15.326Z,7.40
2022-12-31T05:50:44.762Z,7.40
2022-12-31T05:53:13.397Z,7.40
2022-12-31T05:55:42.072Z,7.40
2022-12-31T05:58:10.756Z,7.40
2022-12-31T06:00:40.885Z,7.50
2022-12-31T06:03:09.732Z,7.50
2022-12-31T06:05:41.988Z,7.50
2022-12-31T06:08:11.084Z,7.50
2022-12-31T06:10:40.641Z,7.50
2022-12-31T06:13:10.358Z,7.50
2022-12-31T06:15:41.808Z,7.50
2022-12-31T06:18:10.485Z,7.50
2022-12-31T06:20:39.488Z,7.50
2022-12-31T06:23:08.274Z,7.50
2022-12-31T06:25:38.196Z,7.50
2022-12-31T06:28:07.341Z,7.50
2022-12-31T06:30:35.975Z,7.60
2022-12-31T06:33:05.983Z,7.50
2022-12-31T06:35:34.601Z,7.50
2022-12-31T06:38:03.184Z,7.50
2022-12-31T06:40:31.791Z,7.50
2022-12-31T06:43:00.665Z,7.40
2022-12-31T06:45:29.432Z,7.40
2022-12-31T06:47:58.187Z,7.30
2022-12-31T06:50:28.199Z,7.30
2022-12-31T06:52:56.808Z,7.30
2022-12-31T06:55:26.252Z,7.20
2022-12-31T06:57:55.463Z,7.20
2022-12-31T07:00:24.766Z,7.20
2022-12-31T07:03:09.960Z,7.10
2022-12-31T07:05:47.233Z,7.00
2022-12-31T07:08:42.506Z,7.00
2022-12-31T07:11:16.905Z,7.00
2022-12-31T07:14:00.726Z,7.00
2022-12-31T07:16:41.626Z,7.00
2022-12-31T07:19:24.856Z,7.10
2022-12-31T07:21:57.418Z,7.10
2022-12-31T07:24:26.840Z,7.20
2022-12-31T07:27:08.605Z,7.20
2022-12-31T07:29:51.279Z,7.30
2022-12-31T07:32:34.047Z,7.30
2022-12-31T07:35:10.997Z,7.30
2022-12-31T07:37:50.667Z,7.40
2022-12-31T07:40:22.630Z,7.40
2022-12-31T07:43:06.211Z,7.50
2022-12-31T07:45:41.902Z,7.60
2022-12-31T07:48:22.601Z,7.70
2022-12-31T07:50:52.602Z,7.70
2022-12-31T07:53:23.837Z,7.70
2022-12-31T07:55:57.493Z,7.70
2022-12-31T07:58:39.296Z,7.80
2022-12-31T08:01:12.429Z,7.80
2022-12-31T08:03:54.709Z,7.80
2022-12-31T08:06:35.665Z,7.90
2022-12-31T08:09:25.235Z,8.00
2022-12-31T08:11:58.564Z,8.10
2022-12-31T08:14:29.496Z,8.10
2022-12-31T08:16:59.351Z,8.10
2022-12-31T08:19:30.826Z,8.20
2022-12-31T08:22:23.899Z,8.20
2022-12-31T08:25:09.530Z,8.20
2022-12-31T08:27:47.137Z,8.30
2022-12-31T08:30:18.410Z,8.40
2022-12-31T08:32:54.880Z,8.40
2022-12-31T08:35:37.631Z,8.50
2022-12-31T08:38:16.758Z,8.60
2022-12-31T08:40:53.537Z,8.60
2022-12-31T08:43:34.899Z,8.70
2022-12-31T08:46:06.212Z,8.80
2022-12-31T08:48:40.925Z,8.90
2022-12-31T08:51:15.799Z,9.00
2022-12-31T08:53:45.320Z,9.10
2022-12-31T08:56:29.894Z,9.10
2022-12-31T08:59:16.396Z,9.10
2022-12-31T09:01:58.539Z,9.20
2022-12-31T09:04:31.575Z,9.30
2022-12-31T09:07:02.978Z,9.30
2022-12-31T09:09:41.661Z,9.30
2022-12-31T09:12:19.789Z,9.30
2022-12-31T09:14:51.217Z,9.30
2022-12-31T09:17:44.898Z,9.30
2022-12-31T09:20:21.116Z,9.20
2022-12-31T09:22:50.246Z,9.30
2022-12-31T09:25:21.519Z,9.20
2022-12-31T09:28:06.267Z,9.20
2022-12-31T09:30:43.579Z,9.20
2022-12-31T09:33:22.556Z,9.20
2022-12-31T09:35:55.878Z,9.20
2022-12-31T09:38:29.919Z,9.30
2022-12-31T09:41:15.587Z,9.30
2022-12-31T09:44:13.850Z,9.30
2022-12-31T09:47:07.896Z,9.30
2022-12-31T09:50:29.859Z,9.20
2022-12-31T09:53:28.005Z,9.30
2022-12-31T09:56:02.213Z,9.40
2022-12-31T09:58:42.857Z,9.40
2022-12-31T10:01:37.250Z,9.50
2022-12-31T10:04:39.830Z,9.60
2022-12-31T10:07:26.066Z,9.70
2022-12-31T10:10:07.798Z,9.80
2022-12-31T10:13:03.353Z,9.90
2022-12-31T10:16:04.257Z,10.00
2022-12-31T10:19:05.818Z,10.00
2022-12-31T10:21:47.613Z,10.10
2022-12-31T10:24:31.552Z,10.20
2022-12-31T10:27:12.987Z,10.40
2022-12-31T10:29:47.824Z,10.50
2022-12-31T10:32:24.982Z,10.70
2022-12-31T10:35:10.638Z,10.80
2022-12-31T10:37:47.190Z,10.90
2022-12-31T10:40:26.030Z,11.00
2022-12-31T10:43:19.004Z,11.00
2022-12-31T10:46:23.144Z,11.00
2022-12-31T10:49:22.872Z,11.10
2022-12-31T10:52:24.813Z,11.10
2022-12-31T10:55:30.120Z,11.10
2022-12-31T10:58:35.899Z,11.20
2022-12-31T11:01:12.024Z,11.30
2022-12-31T11:04:26.965Z,11.40
2022-12-31T11:07:15.272Z,11.40
2022-12-31T11:10:11.407Z,11.50
2022-12-31T11:13:14.482Z,11.60
2022-12-31T11:16:08.092Z,11.70
2022-12-31T11:18:44.940Z,11.80
2022-12-31T11:21:28.488Z,11.80
2022-12-31T11:24:07.191Z,11.80
2022-12-31T11:26:48.583Z,11.80
2022-12-31T11:29:34.155Z,11.80
2022-12-31T11:32:16.875Z,11.80
2022-12-31T11:35:17.235Z,11.80
2022-12-31T11:37:49.495Z,11.80
2022-12-31T11:40:44.859Z,11.80
2022-12-31T11:43:24.220Z,11.80
2022-12-31T11:46:22.308Z,11.80
2022-12-31T11:49:01.876Z,11.90
2022-12-31T11:51:50.898Z,11.90
2022-12-31T11:54:49.517Z,12.00
2022-12-31T11:57:27.299Z,12.00
2022-12-31T12:00:00.940Z,12.10
2022-12-31T12:02:36.629Z,12.10
2022-12-31T12:05:11.125Z,12.20
2022-12-31T12:07:40.475Z,12.20
2022-12-31T12:10:29.164Z,12.20
2022-12-31T12:13:12.983Z,12.20
2022-12-31T12:15:46.519Z,12.20
2022-12-31T12:18:29.267Z,12.10
2022-12-31T12:21:11.285Z,12.00
2022-12-31T12:23:41.069Z,11.80
2022-12-31T12:26:27.647Z,11.70
2022-12-31T12:29:01.643Z,11.60
2022-12-31T12:31:30.765Z,11.50
2022-12-31T12:33:59.428Z,11.40
2022-12-31T12:36:28.119Z,11.40
2022-12-31T12:39:03.121Z,11.40
2022-12-31T12:41:32.395Z,11.40
2022-12-31T12:44:07.354Z,11.30
2022-12-31T12:46:43.554Z,11.30
2022-12-31T12:49:24.226Z,11.30
2022-12-31T12:52:11.910Z,11.20
2022-12-31T12:54:52.533Z,11.20
2022-12-31T12:57:26.337Z,11.30
2022-12-31T13:00:07.836Z,11.30
2022-12-31T13:03:02.884Z,11.30
2022-12-31T13:05:42.681Z,11.40
2022-12-31T13:08:22.071Z,11.40
2022-12-31T13:11:02.644Z,11.40
2022-12-31T13:13:43.322Z,11.40
2022-12-31T13:16:22.544Z,11.40
2022-12-31T13:19:00.065Z,11.50
2022-12-31T13:21:44.383Z,11.50
2022-12-31T13:24:24.219Z,11.50
2022-12-31T13:27:02.196Z,11.50
2022-12-31T13:29:34.445Z,11.50
2022-12-31T13:32:07.943Z,11.50
2022-12-31T13:34:41.540Z,11.50
2022-12-31T13:37:23.771Z,11.50
2022-12-31T13:39:58.131Z,11.50
2022-12-31T13:42:34.045Z,11.50
2022-12-31T13:45:05.481Z,11.50
2022-12-31T13:47:42.921Z,11.40
2022-12-31T13:50:20.278Z,11.30
2022-12-31T13:52:55.111Z,11.30
2022-12-31T13:55:27.823Z,11.30
2022-12-31T13:58:02.699Z,11.20
2022-12-31T14:00:38.989Z,11.20
2022-12-31T14:03:18.124Z,11.20
2022-12-31T14:05:53.910Z,11.20
2022-12-31T14:08:22.700Z,11.10
2022-12-31T14:11:03.326Z,11.10
2022-12-31T14:13:54.826Z,11.00
2022-12-31T14:16:29.673Z,11.00
2022-12-31T14:19:08.219Z,11.00
2022-12-31T14:21:43.620Z,11.00
2022-12-31T14:24:16.094Z,10.90
2022-12-31T14:26:50.206Z,10.90
2022-12-31T14:29:32.607Z,10.90
2022-12-31T14:32:35.350Z,10.90
2022-12-31T14:35:19.831Z,10.80
2022-12-31T14:37:58.174Z,10.80
2022-12-31T14:40:30.181Z,10.80
2022-12-31T14:43:15.060Z,10.70
2022-12-31T14:45:54.377Z,10.70
2022-12-31T14:48:34.400Z,10.70
2022-12-31T14:51:05.490Z,10.60
2022-12-31T14:53:34.321Z,10.60
2022-12-31T14:56:06.283Z,10.60
2022-12-31T14:58:37.405Z,10.50
2022-12-31T15:01:09.112Z,10.50
2022-12-31T15:03:46.054Z,10.50
2022-12-31T15:06:44.650Z,10.40
2022-12-31T15:09:24.628Z,10.40
2022-12-31T15:12:21.811Z,10.40
2022-12-31T15:15:10.970Z,10.30
2022-12-31T15:17:53.564Z,10.30
2022-12-31T15:20:49.264Z,10.30
2022-12-31T15:23:26.002Z,10.40
2022-12-31T15:26:00.649Z,10.50
2022-12-31T15:28:34.317Z,10.50
2022-12-31T15:31:17.879Z,10.60
2022-12-31T15:33:57.684Z,10.70
2022-12-31T15:36:30.215Z,10.80
2022-12-31T15:39:26.895Z,10.80
2022-12-31T15:44:51.892Z,10.70
2022-12-31T15:47:29.537Z,10.70
2022-12-31T15:50:02.659Z,10.80
2022-12-31T15:52:40.795Z,10.80
2022-12-31T15:55:24.154Z,10.80
2022-12-31T15:57:57.043Z,10.80
2022-12-31T16:00:32.381Z,10.80
2022-12-31T16:03:01.526Z,10.80
2022-12-31T16:05:35.580Z,10.80
2022-12-31T16:08:05.508Z,10.70
2022-12-31T16:10:37.123Z,10.70
2022-12-31T16:13:08.826Z,10.70
2022-12-31T16:15:38.520Z,10.70
2022-12-31T16:18:18.976Z,10.60
2022-12-31T16:20:52.118Z,10.60
2022-12-31T16:23:23.646Z,10.70
2022-12-31T16:25:54.584Z,10.70
2022-12-31T16:28:29.883Z,10.70
2022-12-31T16:31:02.450Z,10.80
2022-12-31T16:33:32.586Z,10.80
2022-12-31T16:36:02.945Z,10.90
2022-12-31T16:38:36.666Z,11.00
2022-12-31T16:41:19.160Z,11.00
2022-12-31T16:43:51.445Z,11.00
2022-12-31T16:46:26.358Z,11.10
2022-12-31T16:48:58.325Z,11.10
2022-12-31T16:51:31.063Z,11.20
2022-12-31T16:54:00.310Z,11.20
2022-12-31T16:56:34.369Z,11.30
2022-12-31T16:59:07.054Z,11.40
2022-12-31T17:01:38.476Z,11.50
2022-12-31T17:04:11.938Z,11.60
2022-12-31T17:06:41.303Z,11.70
2022-12-31T17:09:15.325Z,11.70
2022-12-31T17:11:45.591Z,11.80
2022-12-31T17:14:17.707Z,12.10
2022-12-31T17:17:03.690Z,12.20
2022-12-31T17:19:40.535Z,12.30
2022-12-31T17:22:14.486Z,12.40
2022-12-31T17:24:43.395Z,12.50
2022-12-31T17:27:12.263Z,12.60
2022-12-31T17:29:42.422Z,12.70
2022-12-31T17:32:31.184Z,12.80
2022-12-31T17:34:59.922Z,12.90
2022-12-31T17:37:30.201Z,12.90
2022-12-31T17:40:25.059Z,12.90
2022-12-31T17:42:50.951Z,12.90
2022-12-31T17:45:23.068Z,12.90
2022-12-31T17:47:54.108Z,12.90
2022-12-31T17:50:26.206Z,12.90
2022-12-31T17:52:58.517Z,12.80
2022-12-31T17:55:29.688Z,12.80
2022-12-31T17:58:04.177Z,12.80
2022-12-31T18:00:34.862Z,12.90
2022-12-31T18:03:03.605Z,12.80
2022-12-31T18:05:32.328Z,12.80
2022-12-31T18:08:01.012Z,12.80
2022-12-31T18:10:33.062Z,12.70
2022-12-31T18:13:02.020Z,12.60
2022-12-31T18:15:30.716Z,12.60
2022-12-31T18:18:01.009Z,12.50
2022-12-31T18:20:29.923Z,12.40
2022-12-31T18:22:58.596Z,12.20
2022-12-31T18:25:27.282Z,12.10
2022-12-31T18:27:55.949Z,12.00
2022-12-31T18:30:24.583Z,12.00
2022-12-31T18:32:53.511Z,11.90
2022-12-31T18:38:14.441Z,11.90
2022-12-31T18:40:51.195Z,11.90
2022-12-31T18:43:20.766Z,11.80
2022-12-31T18:45:50.457Z,11.80
2022-12-31T18:48:19.841Z,11.80
2022-12-31T18:50:51.113Z,11.70
2022-12-31T18:53:21.778Z,11.60
2022-12-31T18:55:52.881Z,11.50
2022-12-31T18:58:22.786Z,11.50
2022-12-31T19:00:53.134Z,11.30
2022-12-31T19:03:23.963Z,11.30
2022-12-31T19:05:54.287Z,11.20
2022-12-31T19:08:24.555Z,11.20
2022-12-31T19:10:53.908Z,11.20
2022-12-31T19:13:23.377Z,11.10
2022-12-31T19:15:53.614Z,11.10
2022-12-31T19:18:22.517Z,11.10
2022-12-31T19:20:54.253Z,11.10
2022-12-31T19:23:23.248Z,11.10
2022-12-31T19:25:52.078Z,11.10
2022-12-31T19:28:22.703Z,11.10
2022-12-31T19:30:51.893Z,11.10
2022-12-31T19:33:22.969Z,11.10
2022-12-31T19:35:51.680Z,11.20
2022-12-31T19:38:25.495Z,11.20
2022-12-31T19:40:55.131Z,11.20
2022-12-31T19:43:25.011Z,11.30
2022-12-31T19:45:53.895Z,11.40
2022-12-31T19:48:32.541Z,11.40
2022-12-31T19:51:02.166Z,11.50
2022-12-31T19:53:32.286Z,11.60
2022-12-31T19:56:01.000Z,11.70
2022-12-31T19:58:29.630Z,11.70
2022-12-31T20:01:02.703Z,11.80
2022-12-31T20:03:33.299Z,11.80
2022-12-31T20:06:04.207Z,11.80
2022-12-31T20:08:36.844Z,11.70
2022-12-31T20:11:13.660Z,11.70
2022-12-31T20:13:43.311Z,11.60
2022-12-31T20:16:15.254Z,11.50
2022-12-31T20:18:47.893Z,11.50
2022-12-31T20:21:20.863Z,11.40
2022-12-31T20:23:51.983Z,11.40
2022-12-31T20:26:22.079Z,11.30
2022-12-31T20:28:50.980Z,11.20
2022-12-31T20:31:21.996Z,11.20
2022-12-31T20:33:50.704Z,11.20
2022-12-31T20:36:21.300Z,11.10
2022-12-31T20:38:51.746Z,11.10
2022-12-31T20:41:22.500Z,10.90
2022-12-31T20:43:51.760Z,10.80
2022-12-31T20:46:22.879Z,10.80
2022-12-31T20:48:53.230Z,10.70
2022-12-31T20:51:23.152Z,10.60
2022-12-31T20:53:55.251Z,10.60
2022-12-31T20:56:25.767Z,10.50
2022-12-31T20:58:54.598Z,10.50
2022-12-31T21:01:23.773Z,10.40
2022-12-31T21:04:05.019Z,10.40
2022-12-31T21:06:36.602Z,10.40
2022-12-31T21:09:08.857Z,10.30
2022-12-31T21:11:55.410Z,10.30
2022-12-31T21:14:24.149Z,10.30
2022-12-31T21:16:54.950Z,10.30
2022-12-31T21:19:23.626Z,10.40
2022-12-31T21:21:52.254Z,10.40
2022-12-31T21:24:24.192Z,10.40
2022-12-31T21:26:53.385Z,10.40
2022-12-31T21:29:22.674Z,10.40
2022-12-31T21:31:51.459Z,10.50
2022-12-31T21:34:20.152Z,10.50
2022-12-31T21:36:48.901Z,10.50
2022-12-31T21:39:17.605Z,10.50
2022-12-31T21:41:53.725Z,10.60
2022-12-31T21:44:23.442Z,10.60
2022-12-31T21:47:33.378Z,10.50
2022-12-31T21:49:45.254Z,10.60
2022-12-31T21:52:30.750Z,10.60
2022-12-31T21:55:18.555Z,10.50
2022-12-31T21:58:24.709Z,10.50
2022-12-31T22:00:57.500Z,10.60
2022-12-31T22:03:27.936Z,10.60
2022-12-31T22:06:00.455Z,10.70
2022-12-31T22:08:30.405Z,10.70
2022-12-31T22:10:59.354Z,10.70
2022-12-31T22:13:29.538Z,10.70
2022-12-31T22:16:04.792Z,10.80
2022-12-31T22:18:38.728Z,10.80
2022-12-31T22:21:15.730Z,10.80
2022-12-31T22:23:48.252Z,10.80
2022-12-31T22:26:18.106Z,10.80
2022-12-31T22:28:48.539Z,10.80
2022-12-31T22:31:18.752Z,10.80
2022-12-31T22:33:47.639Z,10.90
2022-12-31T22:36:19.467Z,10.80
2022-12-31T22:38:49.083Z,10.80
2022-12-31T22:41:19.609Z,10.80
2022-12-31T22:43:51.349Z,10.90
2022-12-31T22:46:22.292Z,10.80
2022-12-31T22:48:51.210Z,10.80
2022-12-31T22:51:20.886Z,10.90
2022-12-31T22:53:50.212Z,10.90
2022-12-31T22:56:20.161Z,10.90
2022-12-31T22:58:50.233Z,10.90
2022-12-31T23:01:20.643Z,10.90
2022-12-31T23:03:50.886Z,11.00
2022-12-31T23:06:19.953Z,11.10
2022-12-31T23:09:02.632Z,11.10
2022-12-31T23:11:31.306Z,11.10
2022-12-31T23:14:18.922Z,11.00
2022-12-31T23:17:29.755Z,11.00
2022-12-31T23:20:11.102Z,11.00
2022-12-31T23:22:57.229Z,11.00
2022-12-31T23:25:25.870Z,11.00
2022-12-31T23:27:54.586Z,10.90
2022-12-31T23:30:24.620Z,10.90
2022-12-31T23:32:53.200Z,10.90
2022-12-31T23:35:22.254Z,10.90
2022-12-31T23:37:50.966Z,10.90
2022-12-31T23:40:21.894Z,10.90
2022-12-31T23:42:51.074Z,10.80
2022-12-31T23:45:19.736Z,10.80
2022-12-31T23:47:49.793Z,10.80
2022-12-31T23:50:18.726Z,10.80
2022-12-31T23:52:47.804Z,10.80
2022-12-31T23:55:16.590Z,10.80
2022-12-31T23:57:45.365Z,10.80
